Hounsfield, New York
Current Conditions -  °F | °C
As of 10:56 PM on Saturday 24 Jan 2015 (Local Time) from KART Reporting Station
Light Snow Light Snow  
Wind Chill: 25°   Ceiling: 700
Heat Index: 34°   Visibility: 3mi
Dew Point: 30°   Wind: 13mph
Humidity: 85%   Direction: 250°WSW
Pressure: 29.4"   Gusts: 21mph
Location:  43.9321°N, 76.0832°W
Report Text: KART 250356Z AUTO 25011G18KT 3SM -SN BR OVC007 01/M01 A2940 RMK AO2 SLP962 P0000 T00111011
Loading
Personal Weather Stations






























Interactive Weather Map New forecast layout! Learn more

10-Day Weather Forecast

Advertisements
Track Severe Weather on mobile